sensor_id;sensor_type;location;lat;lon;timestamp;P1;durP1;ratioP1;P2;durP2;ratioP2
51146;SDS011;37207;53.060;18.726;2023-05-29T00:00:13;12.60;;;9.50;;
51146;SDS011;37207;53.060;18.726;2023-05-29T00:03:01;17.40;;;9.60;;
51146;SDS011;37207;53.060;18.726;2023-05-29T00:05:27;16.90;;;10.00;;
51146;SDS011;37207;53.060;18.726;2023-05-29T00:07:53;9.90;;;8.90;;
51146;SDS011;37207;53.060;18.726;2023-05-29T00:10:19;14.40;;;9.30;;
51146;SDS011;37207;53.060;18.726;2023-05-29T00:12:45;10.50;;;9.50;;
51146;SDS011;37207;53.060;18.726;2023-05-29T00:15:10;10.10;;;8.60;;
51146;SDS011;37207;53.060;18.726;2023-05-29T00:17:37;12.60;;;8.60;;
51146;SDS011;37207;53.060;18.726;2023-05-29T00:20:05;12.60;;;10.30;;
51146;SDS011;37207;53.060;18.726;2023-05-29T00:22:37;14.90;;;11.80;;
51146;SDS011;37207;53.060;18.726;2023-05-29T00:25:04;15.70;;;10.70;;
51146;SDS011;37207;53.060;18.726;2023-05-29T00:27:31;11.60;;;9.40;;
51146;SDS011;37207;53.060;18.726;2023-05-29T00:29:58;17.90;;;9.60;;
51146;SDS011;37207;53.060;18.726;2023-05-29T00:32:25;15.00;;;10.20;;
51146;SDS011;37207;53.060;18.726;2023-05-29T00:34:51;16.10;;;9.70;;
51146;SDS011;37207;53.060;18.726;2023-05-29T00:37:17;10.80;;;9.80;;
51146;SDS011;37207;53.060;18.726;2023-05-29T00:39:43;9.90;;;8.60;;
51146;SDS011;37207;53.060;18.726;2023-05-29T00:42:09;23.40;;;8.50;;
51146;SDS011;37207;53.060;18.726;2023-05-29T00:44:34;9.70;;;8.20;;
51146;SDS011;37207;53.060;18.726;2023-05-29T00:47:01;11.40;;;9.50;;
51146;SDS011;37207;53.060;18.726;2023-05-29T00:49:27;12.60;;;9.80;;
51146;SDS011;37207;53.060;18.726;2023-05-29T00:51:53;14.10;;;9.60;;
51146;SDS011;37207;53.060;18.726;2023-05-29T00:54:21;15.20;;;9.00;;
51146;SDS011;37207;53.060;18.726;2023-05-29T00:56:52;10.00;;;9.10;;
51146;SDS011;37207;53.060;18.726;2023-05-29T00:59:18;10.40;;;9.00;;
51146;SDS011;37207;53.060;18.726;2023-05-29T01:01:47;20.00;;;9.30;;
51146;SDS011;37207;53.060;18.726;2023-05-29T01:04:14;14.00;;;8.90;;
51146;SDS011;37207;53.060;18.726;2023-05-29T01:06:41;11.30;;;8.70;;
51146;SDS011;37207;53.060;18.726;2023-05-29T01:09:07;9.00;;;8.30;;
51146;SDS011;37207;53.060;18.726;2023-05-29T01:11:45;9.30;;;8.30;;
51146;SDS011;37207;53.060;18.726;2023-05-29T01:14:33;9.60;;;8.60;;
51146;SDS011;37207;53.060;18.726;2023-05-29T01:17:16;30.40;;;8.70;;
51146;SDS011;37207;53.060;18.726;2023-05-29T01:25:23;24.10;;;11.80;;
51146;SDS011;37207;53.060;18.726;2023-05-29T01:27:55;20.40;;;13.10;;
51146;SDS011;37207;53.060;18.726;2023-05-29T01:30:22;19.40;;;12.80;;
51146;SDS011;37207;53.060;18.726;2023-05-29T01:32:50;13.60;;;12.10;;
51146;SDS011;37207;53.060;18.726;2023-05-29T01:35:17;18.70;;;12.10;;
51146;SDS011;37207;53.060;18.726;2023-05-29T01:37:43;13.80;;;11.00;;
51146;SDS011;37207;53.060;18.726;2023-05-29T01:40:08;13.80;;;10.30;;
51146;SDS011;37207;53.060;18.726;2023-05-29T01:42:35;12.50;;;11.10;;
51146;SDS011;37207;53.060;18.726;2023-05-29T01:45:01;11.50;;;10.20;;
51146;SDS011;37207;53.060;18.726;2023-05-29T01:47:29;10.70;;;9.50;;
51146;SDS011;37207;53.060;18.726;2023-05-29T01:49:55;11.60;;;10.20;;
51146;SDS011;37207;53.060;18.726;2023-05-29T01:52:21;11.00;;;9.90;;
51146;SDS011;37207;53.060;18.726;2023-05-29T01:54:47;11.40;;;9.80;;
51146;SDS011;37207;53.060;18.726;2023-05-29T01:57:13;12.40;;;10.50;;
51146;SDS011;37207;53.060;18.726;2023-05-29T01:59:39;9.20;;;8.30;;
51146;SDS011;37207;53.060;18.726;2023-05-29T02:02:07;9.50;;;7.70;;
51146;SDS011;37207;53.060;18.726;2023-05-29T02:04:33;10.60;;;7.90;;
51146;SDS011;37207;53.060;18.726;2023-05-29T02:07:00;8.20;;;7.60;;
51146;SDS011;37207;53.060;18.726;2023-05-29T02:09:26;8.50;;;7.80;;
51146;SDS011;37207;53.060;18.726;2023-05-29T02:11:52;16.10;;;9.40;;
51146;SDS011;37207;53.060;18.726;2023-05-29T02:14:18;14.60;;;9.70;;
51146;SDS011;37207;53.060;18.726;2023-05-29T02:16:44;9.60;;;8.60;;
51146;SDS011;37207;53.060;18.726;2023-05-29T02:19:10;9.50;;;8.80;;
51146;SDS011;37207;53.060;18.726;2023-05-29T02:21:39;10.10;;;8.60;;
51146;SDS011;37207;53.060;18.726;2023-05-29T02:24:08;10.70;;;8.60;;
51146;SDS011;37207;53.060;18.726;2023-05-29T02:26:34;9.20;;;8.40;;
51146;SDS011;37207;53.060;18.726;2023-05-29T02:29:02;12.70;;;8.90;;
51146;SDS011;37207;53.060;18.726;2023-05-29T02:31:31;9.50;;;8.60;;
51146;SDS011;37207;53.060;18.726;2023-05-29T02:33:57;11.20;;;8.50;;
51146;SDS011;37207;53.060;18.726;2023-05-29T02:36:23;10.80;;;8.60;;
51146;SDS011;37207;53.060;18.726;2023-05-29T02:38:50;10.50;;;8.70;;
51146;SDS011;37207;53.060;18.726;2023-05-29T02:41:16;13.50;;;9.20;;
51146;SDS011;37207;53.060;18.726;2023-05-29T02:43:42;15.50;;;9.60;;
51146;SDS011;37207;53.060;18.726;2023-05-29T02:46:08;13.80;;;10.00;;
51146;SDS011;37207;53.060;18.726;2023-05-29T02:48:34;22.70;;;10.10;;
51146;SDS011;37207;53.060;18.726;2023-05-29T02:51:00;14.30;;;9.60;;
51146;SDS011;37207;53.060;18.726;2023-05-29T02:53:26;14.80;;;9.90;;
51146;SDS011;37207;53.060;18.726;2023-05-29T02:55:52;14.60;;;11.70;;
51146;SDS011;37207;53.060;18.726;2023-05-29T02:58:18;19.90;;;13.30;;
51146;SDS011;37207;53.060;18.726;2023-05-29T03:00:43;16.30;;;12.60;;
51146;SDS011;37207;53.060;18.726;2023-05-29T03:03:09;22.20;;;13.40;;
51146;SDS011;37207;53.060;18.726;2023-05-29T03:05:38;18.90;;;12.00;;
51146;SDS011;37207;53.060;18.726;2023-05-29T03:08:04;22.20;;;12.50;;
51146;SDS011;37207;53.060;18.726;2023-05-29T03:10:30;16.90;;;12.10;;
51146;SDS011;37207;53.060;18.726;2023-05-29T03:12:56;22.10;;;10.80;;
51146;SDS011;37207;53.060;18.726;2023-05-29T03:15:21;20.90;;;11.70;;
51146;SDS011;37207;53.060;18.726;2023-05-29T03:17:48;18.40;;;11.00;;
51146;SDS011;37207;53.060;18.726;2023-05-29T03:20:16;45.80;;;12.30;;
51146;SDS011;37207;53.060;18.726;2023-05-29T03:22:42;27.50;;;11.80;;
51146;SDS011;37207;53.060;18.726;2023-05-29T03:25:08;12.20;;;11.00;;
51146;SDS011;37207;53.060;18.726;2023-05-29T03:27:34;18.60;;;11.10;;
51146;SDS011;37207;53.060;18.726;2023-05-29T03:30:07;19.60;;;11.30;;
51146;SDS011;37207;53.060;18.726;2023-05-29T03:32:34;17.20;;;9.80;;
51146;SDS011;37207;53.060;18.726;2023-05-29T03:35:00;14.70;;;10.10;;
51146;SDS011;37207;53.060;18.726;2023-05-29T03:37:26;14.00;;;8.90;;
51146;SDS011;37207;53.060;18.726;2023-05-29T03:39:52;10.10;;;9.10;;
51146;SDS011;37207;53.060;18.726;2023-05-29T03:42:19;18.90;;;9.20;;
51146;SDS011;37207;53.060;18.726;2023-05-29T03:44:47;12.80;;;9.00;;
51146;SDS011;37207;53.060;18.726;2023-05-29T03:47:13;9.50;;;8.50;;
51146;SDS011;37207;53.060;18.726;2023-05-29T03:49:39;10.00;;;9.10;;
51146;SDS011;37207;53.060;18.726;2023-05-29T03:52:05;10.20;;;9.10;;
51146;SDS011;37207;53.060;18.726;2023-05-29T03:54:31;11.20;;;7.70;;
51146;SDS011;37207;53.060;18.726;2023-05-29T03:56:57;13.20;;;8.40;;
51146;SDS011;37207;53.060;18.726;2023-05-29T03:59:24;12.30;;;8.50;;
51146;SDS011;37207;53.060;18.726;2023-05-29T04:01:50;10.10;;;7.60;;
51146;SDS011;37207;53.060;18.726;2023-05-29T04:04:16;9.60;;;8.10;;
51146;SDS011;37207;53.060;18.726;2023-05-29T04:06:44;9.00;;;7.80;;
51146;SDS011;37207;53.060;18.726;2023-05-29T04:09:11;8.90;;;8.00;;
51146;SDS011;37207;53.060;18.726;2023-05-29T04:11:37;9.30;;;8.40;;
51146;SDS011;37207;53.060;18.726;2023-05-29T04:14:04;14.90;;;7.70;;
51146;SDS011;37207;53.060;18.726;2023-05-29T04:16:30;9.00;;;7.70;;
51146;SDS011;37207;53.060;18.726;2023-05-29T04:18:56;10.60;;;6.50;;
51146;SDS011;37207;53.060;18.726;2023-05-29T04:21:24;7.70;;;6.10;;
51146;SDS011;37207;53.060;18.726;2023-05-29T04:23:52;21.90;;;7.10;;
51146;SDS011;37207;53.060;18.726;2023-05-29T04:26:18;14.90;;;6.80;;
51146;SDS011;37207;53.060;18.726;2023-05-29T04:28:47;63.60;;;8.30;;
51146;SDS011;37207;53.060;18.726;2023-05-29T04:31:14;9.70;;;6.60;;
51146;SDS011;37207;53.060;18.726;2023-05-29T04:33:41;12.50;;;6.90;;
51146;SDS011;37207;53.060;18.726;2023-05-29T04:36:10;10.20;;;6.50;;
51146;SDS011;37207;53.060;18.726;2023-05-29T04:38:37;14.70;;;6.40;;
51146;SDS011;37207;53.060;18.726;2023-05-29T04:41:03;6.40;;;5.80;;
51146;SDS011;37207;53.060;18.726;2023-05-29T04:43:29;6.70;;;5.60;;
51146;SDS011;37207;53.060;18.726;2023-05-29T04:46:02;19.40;;;6.10;;
51146;SDS011;37207;53.060;18.726;2023-05-29T04:48:29;116.50;;;8.80;;
51146;SDS011;37207;53.060;18.726;2023-05-29T04:50:55;13.80;;;5.60;;
51146;SDS011;37207;53.060;18.726;2023-05-29T04:53:25;10.50;;;5.10;;
51146;SDS011;37207;53.060;18.726;2023-05-29T04:55:52;9.60;;;5.00;;
51146;SDS011;37207;53.060;18.726;2023-05-29T04:58:18;12.40;;;5.00;;
51146;SDS011;37207;53.060;18.726;2023-05-29T05:00:44;7.20;;;4.80;;
51146;SDS011;37207;53.060;18.726;2023-05-29T05:03:09;13.10;;;4.60;;
51146;SDS011;37207;53.060;18.726;2023-05-29T05:05:36;5.70;;;4.60;;
51146;SDS011;37207;53.060;18.726;2023-05-29T05:08:02;11.90;;;5.00;;
51146;SDS011;37207;53.060;18.726;2023-05-29T05:10:28;16.30;;;5.00;;
51146;SDS011;37207;53.060;18.726;2023-05-29T05:12:54;9.80;;;5.70;;
51146;SDS011;37207;53.060;18.726;2023-05-29T05:15:21;7.80;;;5.10;;
51146;SDS011;37207;53.060;18.726;2023-05-29T05:17:47;12.80;;;4.90;;
51146;SDS011;37207;53.060;18.726;2023-05-29T05:20:13;9.40;;;5.10;;
51146;SDS011;37207;53.060;18.726;2023-05-29T05:22:39;7.30;;;5.70;;
51146;SDS011;37207;53.060;18.726;2023-05-29T05:25:05;7.30;;;4.90;;
51146;SDS011;37207;53.060;18.726;2023-05-29T05:27:32;8.50;;;4.30;;
51146;SDS011;37207;53.060;18.726;2023-05-29T05:30:00;9.40;;;4.90;;
51146;SDS011;37207;53.060;18.726;2023-05-29T05:32:26;7.70;;;5.30;;
51146;SDS011;37207;53.060;18.726;2023-05-29T05:35:01;8.10;;;4.70;;
51146;SDS011;37207;53.060;18.726;2023-05-29T05:37:28;21.60;;;7.10;;
51146;SDS011;37207;53.060;18.726;2023-05-29T05:39:55;7.40;;;5.10;;
51146;SDS011;37207;53.060;18.726;2023-05-29T05:42:23;6.90;;;5.10;;
51146;SDS011;37207;53.060;18.726;2023-05-29T05:44:53;9.80;;;4.30;;
51146;SDS011;37207;53.060;18.726;2023-05-29T05:47:19;15.50;;;4.40;;
51146;SDS011;37207;53.060;18.726;2023-05-29T05:49:45;9.40;;;4.60;;
51146;SDS011;37207;53.060;18.726;2023-05-29T05:52:11;18.30;;;4.80;;
51146;SDS011;37207;53.060;18.726;2023-05-29T05:54:38;8.10;;;4.60;;
51146;SDS011;37207;53.060;18.726;2023-05-29T05:57:04;12.60;;;4.70;;
51146;SDS011;37207;53.060;18.726;2023-05-29T05:59:32;8.30;;;4.70;;
51146;SDS011;37207;53.060;18.726;2023-05-29T06:01:57;8.20;;;5.00;;
51146;SDS011;37207;53.060;18.726;2023-05-29T06:04:23;7.00;;;4.80;;
51146;SDS011;37207;53.060;18.726;2023-05-29T06:06:49;8.10;;;4.50;;
51146;SDS011;37207;53.060;18.726;2023-05-29T06:09:15;6.00;;;5.10;;
51146;SDS011;37207;53.060;18.726;2023-05-29T06:11:41;17.90;;;5.10;;
51146;SDS011;37207;53.060;18.726;2023-05-29T06:14:07;24.60;;;5.20;;
51146;SDS011;37207;53.060;18.726;2023-05-29T06:16:33;14.10;;;5.60;;
51146;SDS011;37207;53.060;18.726;2023-05-29T06:19:00;7.40;;;4.40;;
51146;SDS011;37207;53.060;18.726;2023-05-29T06:21:26;29.40;;;4.70;;
51146;SDS011;37207;53.060;18.726;2023-05-29T06:23:54;8.00;;;5.00;;
51146;SDS011;37207;53.060;18.726;2023-05-29T06:26:20;10.10;;;3.80;;
51146;SDS011;37207;53.060;18.726;2023-05-29T06:28:47;4.30;;;3.90;;
51146;SDS011;37207;53.060;18.726;2023-05-29T06:31:13;19.00;;;4.40;;
51146;SDS011;37207;53.060;18.726;2023-05-29T06:33:39;6.00;;;4.30;;
51146;SDS011;37207;53.060;18.726;2023-05-29T06:36:05;20.50;;;4.90;;
51146;SDS011;37207;53.060;18.726;2023-05-29T06:38:32;7.70;;;4.30;;
51146;SDS011;37207;53.060;18.726;2023-05-29T06:40:58;7.80;;;4.50;;
51146;SDS011;37207;53.060;18.726;2023-05-29T06:43:24;6.30;;;4.30;;
51146;SDS011;37207;53.060;18.726;2023-05-29T06:45:54;8.60;;;4.00;;
51146;SDS011;37207;53.060;18.726;2023-05-29T06:48:20;11.90;;;4.20;;
51146;SDS011;37207;53.060;18.726;2023-05-29T06:50:47;9.30;;;4.00;;
51146;SDS011;37207;53.060;18.726;2023-05-29T06:53:43;14.70;;;4.10;;
51146;SDS011;37207;53.060;18.726;2023-05-29T06:56:11;8.10;;;3.70;;
51146;SDS011;37207;53.060;18.726;2023-05-29T06:58:37;125.80;;;7.80;;
51146;SDS011;37207;53.060;18.726;2023-05-29T07:01:03;131.20;;;9.70;;
51146;SDS011;37207;53.060;18.726;2023-05-29T07:03:32;130.40;;;8.40;;
51146;SDS011;37207;53.060;18.726;2023-05-29T07:06:01;77.60;;;7.30;;
51146;SDS011;37207;53.060;18.726;2023-05-29T07:08:27;9.10;;;4.20;;
51146;SDS011;37207;53.060;18.726;2023-05-29T07:10:53;19.00;;;3.70;;
51146;SDS011;37207;53.060;18.726;2023-05-29T07:13:20;9.90;;;4.40;;
51146;SDS011;37207;53.060;18.726;2023-05-29T07:15:46;13.10;;;3.80;;
51146;SDS011;37207;53.060;18.726;2023-05-29T07:18:13;12.30;;;3.90;;
51146;SDS011;37207;53.060;18.726;2023-05-29T07:20:39;7.50;;;3.30;;
51146;SDS011;37207;53.060;18.726;2023-05-29T07:23:05;3.40;;;3.00;;
51146;SDS011;37207;53.060;18.726;2023-05-29T07:25:31;18.60;;;4.10;;
51146;SDS011;37207;53.060;18.726;2023-05-29T07:27:58;9.40;;;3.60;;
51146;SDS011;37207;53.060;18.726;2023-05-29T07:30:24;7.80;;;3.90;;
51146;SDS011;37207;53.060;18.726;2023-05-29T07:32:50;20.10;;;4.10;;
51146;SDS011;37207;53.060;18.726;2023-05-29T07:35:16;8.30;;;4.30;;
51146;SDS011;37207;53.060;18.726;2023-05-29T07:37:42;10.80;;;3.40;;
51146;SDS011;37207;53.060;18.726;2023-05-29T07:40:09;13.10;;;3.50;;
51146;SDS011;37207;53.060;18.726;2023-05-29T07:42:54;242.20;;;12.70;;
51146;SDS011;37207;53.060;18.726;2023-05-29T07:45:20;6.00;;;3.40;;
51146;SDS011;37207;53.060;18.726;2023-05-29T07:47:46;7.30;;;3.10;;
51146;SDS011;37207;53.060;18.726;2023-05-29T07:50:14;9.80;;;3.80;;
51146;SDS011;37207;53.060;18.726;2023-05-29T07:52:41;6.10;;;3.70;;
51146;SDS011;37207;53.060;18.726;2023-05-29T07:55:08;5.80;;;3.70;;
51146;SDS011;37207;53.060;18.726;2023-05-29T07:57:35;8.10;;;3.50;;
51146;SDS011;37207;53.060;18.726;2023-05-29T08:00:02;9.10;;;3.70;;
51146;SDS011;37207;53.060;18.726;2023-05-29T08:02:34;25.40;;;4.00;;
51146;SDS011;37207;53.060;18.726;2023-05-29T08:05:24;3.90;;;2.80;;
51146;SDS011;37207;53.060;18.726;2023-05-29T08:07:49;57.90;;;4.60;;
51146;SDS011;37207;53.060;18.726;2023-05-29T08:10:17;10.60;;;3.10;;
51146;SDS011;37207;53.060;18.726;2023-05-29T08:12:43;18.20;;;3.00;;
51146;SDS011;37207;53.060;18.726;2023-05-29T08:15:09;4.70;;;2.90;;
51146;SDS011;37207;53.060;18.726;2023-05-29T08:17:36;23.00;;;3.50;;
51146;SDS011;37207;53.060;18.726;2023-05-29T08:20:02;13.50;;;2.70;;
51146;SDS011;37207;53.060;18.726;2023-05-29T08:22:32;5.30;;;3.40;;
51146;SDS011;37207;53.060;18.726;2023-05-29T08:24:59;9.50;;;3.50;;
51146;SDS011;37207;53.060;18.726;2023-05-29T08:27:25;9.60;;;2.70;;
51146;SDS011;37207;53.060;18.726;2023-05-29T08:29:51;16.10;;;3.40;;
51146;SDS011;37207;53.060;18.726;2023-05-29T08:32:17;12.40;;;3.80;;
51146;SDS011;37207;53.060;18.726;2023-05-29T08:34:43;5.20;;;3.10;;
51146;SDS011;37207;53.060;18.726;2023-05-29T08:37:11;10.60;;;3.90;;
51146;SDS011;37207;53.060;18.726;2023-05-29T08:39:37;17.50;;;4.30;;
51146;SDS011;37207;53.060;18.726;2023-05-29T08:45:02;6.90;;;3.70;;
51146;SDS011;37207;53.060;18.726;2023-05-29T08:47:33;6.00;;;3.50;;
51146;SDS011;37207;53.060;18.726;2023-05-29T08:50:00;25.40;;;4.60;;
51146;SDS011;37207;53.060;18.726;2023-05-29T08:52:27;7.50;;;3.50;;
51146;SDS011;37207;53.060;18.726;2023-05-29T08:55:01;7.40;;;3.70;;
51146;SDS011;37207;53.060;18.726;2023-05-29T08:57:28;7.00;;;3.50;;
51146;SDS011;37207;53.060;18.726;2023-05-29T09:02:22;73.10;;;5.00;;
51146;SDS011;37207;53.060;18.726;2023-05-29T09:04:48;146.90;;;8.00;;
51146;SDS011;37207;53.060;18.726;2023-05-29T09:07:15;87.30;;;6.10;;
51146;SDS011;37207;53.060;18.726;2023-05-29T09:09:42;18.50;;;3.80;;
51146;SDS011;37207;53.060;18.726;2023-05-29T09:12:08;16.40;;;4.90;;
51146;SDS011;37207;53.060;18.726;2023-05-29T09:14:36;21.30;;;4.50;;
51146;SDS011;37207;53.060;18.726;2023-05-29T09:17:10;8.60;;;3.90;;
51146;SDS011;37207;53.060;18.726;2023-05-29T09:19:38;10.60;;;3.90;;
51146;SDS011;37207;53.060;18.726;2023-05-29T09:24:33;7.00;;;3.90;;
51146;SDS011;37207;53.060;18.726;2023-05-29T09:27:02;7.70;;;3.80;;
51146;SDS011;37207;53.060;18.726;2023-05-29T09:29:33;7.20;;;3.30;;
51146;SDS011;37207;53.060;18.726;2023-05-29T09:32:05;10.00;;;3.80;;
51146;SDS011;37207;53.060;18.726;2023-05-29T09:34:33;4.50;;;3.90;;
51146;SDS011;37207;53.060;18.726;2023-05-29T09:37:02;4.90;;;3.80;;
51146;SDS011;37207;53.060;18.726;2023-05-29T09:39:45;5.20;;;3.60;;
51146;SDS011;37207;53.060;18.726;2023-05-29T09:42:16;4.20;;;3.30;;
51146;SDS011;37207;53.060;18.726;2023-05-29T09:44:42;122.40;;;7.40;;
51146;SDS011;37207;53.060;18.726;2023-05-29T09:47:09;32.60;;;5.70;;
51146;SDS011;37207;53.060;18.726;2023-05-29T09:49:43;9.80;;;3.90;;
51146;SDS011;37207;53.060;18.726;2023-05-29T09:52:12;14.10;;;3.90;;
51146;SDS011;37207;53.060;18.726;2023-05-29T09:54:42;3.30;;;3.00;;
51146;SDS011;37207;53.060;18.726;2023-05-29T09:57:16;8.70;;;3.00;;
51146;SDS011;37207;53.060;18.726;2023-05-29T09:59:43;11.70;;;3.60;;
51146;SDS011;37207;53.060;18.726;2023-05-29T10:02:17;3.70;;;3.10;;
51146;SDS011;37207;53.060;18.726;2023-05-29T10:04:44;8.00;;;3.20;;
51146;SDS011;37207;53.060;18.726;2023-05-29T10:07:15;4.80;;;4.40;;
51146;SDS011;37207;53.060;18.726;2023-05-29T10:09:52;30.90;;;4.10;;
51146;SDS011;37207;53.060;18.726;2023-05-29T10:12:41;21.30;;;3.30;;
51146;SDS011;37207;53.060;18.726;2023-05-29T10:15:14;11.10;;;3.40;;
51146;SDS011;37207;53.060;18.726;2023-05-29T10:17:49;34.40;;;3.60;;
51146;SDS011;37207;53.060;18.726;2023-05-29T10:20:25;20.40;;;2.50;;
51146;SDS011;37207;53.060;18.726;2023-05-29T10:22:52;32.90;;;3.60;;
51146;SDS011;37207;53.060;18.726;2023-05-29T10:25:21;5.80;;;2.80;;
51146;SDS011;37207;53.060;18.726;2023-05-29T10:27:49;25.40;;;3.60;;
51146;SDS011;37207;53.060;18.726;2023-05-29T10:30:25;81.40;;;5.40;;
51146;SDS011;37207;53.060;18.726;2023-05-29T10:33:09;7.10;;;2.90;;
51146;SDS011;37207;53.060;18.726;2023-05-29T10:35:51;3.00;;;2.00;;
51146;SDS011;37207;53.060;18.726;2023-05-29T10:38:23;4.10;;;2.40;;
51146;SDS011;37207;53.060;18.726;2023-05-29T10:40:50;3.80;;;2.80;;
51146;SDS011;37207;53.060;18.726;2023-05-29T10:43:32;3.50;;;2.10;;
51146;SDS011;37207;53.060;18.726;2023-05-29T10:46:02;4.60;;;2.40;;
51146;SDS011;37207;53.060;18.726;2023-05-29T10:48:38;2.80;;;2.40;;
51146;SDS011;37207;53.060;18.726;2023-05-29T10:51:06;6.90;;;3.00;;
51146;SDS011;37207;53.060;18.726;2023-05-29T10:53:35;15.10;;;3.80;;
51146;SDS011;37207;53.060;18.726;2023-05-29T10:56:08;7.70;;;2.50;;
51146;SDS011;37207;53.060;18.726;2023-05-29T10:58:40;7.60;;;2.40;;
51146;SDS011;37207;53.060;18.726;2023-05-29T11:01:07;4.80;;;2.00;;
51146;SDS011;37207;53.060;18.726;2023-05-29T11:03:33;2.40;;;2.10;;
51146;SDS011;37207;53.060;18.726;2023-05-29T11:06:01;3.60;;;2.60;;
51146;SDS011;37207;53.060;18.726;2023-05-29T11:13:54;4.60;;;2.40;;
51146;SDS011;37207;53.060;18.726;2023-05-29T11:18:53;21.60;;;2.70;;
51146;SDS011;37207;53.060;18.726;2023-05-29T11:24:27;50.40;;;4.20;;
51146;SDS011;37207;53.060;18.726;2023-05-29T11:26:55;5.90;;;2.30;;
51146;SDS011;37207;53.060;18.726;2023-05-29T11:29:24;18.10;;;2.60;;
51146;SDS011;37207;53.060;18.726;2023-05-29T11:32:02;4.90;;;2.20;;
51146;SDS011;37207;53.060;18.726;2023-05-29T11:34:30;15.30;;;2.30;;
51146;SDS011;37207;53.060;18.726;2023-05-29T11:36:58;5.90;;;2.30;;
51146;SDS011;37207;53.060;18.726;2023-05-29T11:39:24;4.30;;;2.20;;
51146;SDS011;37207;53.060;18.726;2023-05-29T11:41:52;2.80;;;2.40;;
51146;SDS011;37207;53.060;18.726;2023-05-29T11:44:19;26.90;;;3.10;;
51146;SDS011;37207;53.060;18.726;2023-05-29T11:46:45;11.30;;;2.50;;
51146;SDS011;37207;53.060;18.726;2023-05-29T11:49:12;11.00;;;2.90;;
51146;SDS011;37207;53.060;18.726;2023-05-29T11:51:40;31.20;;;3.00;;
51146;SDS011;37207;53.060;18.726;2023-05-29T11:54:07;4.60;;;2.40;;
51146;SDS011;37207;53.060;18.726;2023-05-29T11:56:33;5.30;;;2.40;;
51146;SDS011;37207;53.060;18.726;2023-05-29T11:58:59;3.50;;;2.40;;
51146;SDS011;37207;53.060;18.726;2023-05-29T12:01:25;8.20;;;2.50;;
51146;SDS011;37207;53.060;18.726;2023-05-29T12:03:52;2.40;;;2.20;;
51146;SDS011;37207;53.060;18.726;2023-05-29T12:06:34;10.80;;;2.60;;
51146;SDS011;37207;53.060;18.726;2023-05-29T12:09:03;6.90;;;2.50;;
51146;SDS011;37207;53.060;18.726;2023-05-29T12:11:30;7.00;;;2.60;;
51146;SDS011;37207;53.060;18.726;2023-05-29T12:13:57;3.00;;;2.30;;
51146;SDS011;37207;53.060;18.726;2023-05-29T12:16:25;3.00;;;2.50;;
51146;SDS011;37207;53.060;18.726;2023-05-29T12:18:56;7.60;;;2.60;;
51146;SDS011;37207;53.060;18.726;2023-05-29T12:21:22;6.30;;;2.80;;
51146;SDS011;37207;53.060;18.726;2023-05-29T12:23:52;37.60;;;3.80;;
51146;SDS011;37207;53.060;18.726;2023-05-29T12:26:22;3.70;;;2.50;;
51146;SDS011;37207;53.060;18.726;2023-05-29T12:28:51;57.20;;;4.20;;
51146;SDS011;37207;53.060;18.726;2023-05-29T12:31:30;71.80;;;5.20;;
51146;SDS011;37207;53.060;18.726;2023-05-29T12:34:01;6.10;;;2.60;;
51146;SDS011;37207;53.060;18.726;2023-05-29T12:36:28;3.40;;;2.80;;
51146;SDS011;37207;53.060;18.726;2023-05-29T12:38:54;3.40;;;2.00;;
51146;SDS011;37207;53.060;18.726;2023-05-29T12:43:52;10.10;;;2.70;;
51146;SDS011;37207;53.060;18.726;2023-05-29T12:46:23;3.00;;;2.30;;
51146;SDS011;37207;53.060;18.726;2023-05-29T12:48:52;2.20;;;2.00;;
51146;SDS011;37207;53.060;18.726;2023-05-29T12:51:24;4.20;;;2.30;;
51146;SDS011;37207;53.060;18.726;2023-05-29T12:53:51;3.90;;;2.30;;
51146;SDS011;37207;53.060;18.726;2023-05-29T12:56:23;5.90;;;2.50;;
51146;SDS011;37207;53.060;18.726;2023-05-29T12:58:52;5.60;;;2.70;;
51146;SDS011;37207;53.060;18.726;2023-05-29T13:01:18;2.40;;;2.10;;
51146;SDS011;37207;53.060;18.726;2023-05-29T13:03:44;3.10;;;2.60;;
51146;SDS011;37207;53.060;18.726;2023-05-29T13:06:10;3.00;;;2.20;;
51146;SDS011;37207;53.060;18.726;2023-05-29T13:08:36;10.20;;;2.30;;
51146;SDS011;37207;53.060;18.726;2023-05-29T13:11:02;6.00;;;2.20;;
51146;SDS011;37207;53.060;18.726;2023-05-29T13:13:28;2.50;;;2.00;;
51146;SDS011;37207;53.060;18.726;2023-05-29T13:15:54;4.50;;;2.30;;
51146;SDS011;37207;53.060;18.726;2023-05-29T13:18:20;3.00;;;1.90;;
51146;SDS011;37207;53.060;18.726;2023-05-29T13:20:46;3.80;;;2.30;;
51146;SDS011;37207;53.060;18.726;2023-05-29T13:23:12;5.40;;;2.00;;
51146;SDS011;37207;53.060;18.726;2023-05-29T13:25:38;3.40;;;2.50;;
51146;SDS011;37207;53.060;18.726;2023-05-29T13:28:04;7.70;;;2.60;;
51146;SDS011;37207;53.060;18.726;2023-05-29T13:30:30;5.70;;;2.60;;
51146;SDS011;37207;53.060;18.726;2023-05-29T13:32:56;6.80;;;2.80;;
51146;SDS011;37207;53.060;18.726;2023-05-29T13:35:22;6.30;;;2.20;;
51146;SDS011;37207;53.060;18.726;2023-05-29T13:37:48;2.70;;;2.40;;
51146;SDS011;37207;53.060;18.726;2023-05-29T13:40:14;4.00;;;2.40;;
51146;SDS011;37207;53.060;18.726;2023-05-29T13:42:40;2.40;;;2.10;;
51146;SDS011;37207;53.060;18.726;2023-05-29T13:45:07;4.60;;;2.80;;
51146;SDS011;37207;53.060;18.726;2023-05-29T13:47:34;81.20;;;5.50;;
51146;SDS011;37207;53.060;18.726;2023-05-29T13:50:01;5.60;;;2.80;;
51146;SDS011;37207;53.060;18.726;2023-05-29T13:52:27;9.20;;;2.60;;
51146;SDS011;37207;53.060;18.726;2023-05-29T13:54:53;8.60;;;2.20;;
51146;SDS011;37207;53.060;18.726;2023-05-29T13:57:19;26.90;;;3.00;;
51146;SDS011;37207;53.060;18.726;2023-05-29T13:59:45;5.60;;;1.90;;
51146;SDS011;37207;53.060;18.726;2023-05-29T14:02:11;11.80;;;2.60;;
51146;SDS011;37207;53.060;18.726;2023-05-29T14:04:37;5.00;;;2.20;;
51146;SDS011;37207;53.060;18.726;2023-05-29T14:07:04;2.90;;;2.30;;
51146;SDS011;37207;53.060;18.726;2023-05-29T14:09:30;3.50;;;2.40;;
51146;SDS011;37207;53.060;18.726;2023-05-29T14:11:57;21.40;;;2.10;;
51146;SDS011;37207;53.060;18.726;2023-05-29T14:14:24;3.30;;;2.10;;
51146;SDS011;37207;53.060;18.726;2023-05-29T14:16:51;15.00;;;2.40;;
51146;SDS011;37207;53.060;18.726;2023-05-29T14:19:18;4.20;;;2.60;;
51146;SDS011;37207;53.060;18.726;2023-05-29T14:21:44;26.60;;;3.50;;
51146;SDS011;37207;53.060;18.726;2023-05-29T14:24:11;8.90;;;2.50;;
51146;SDS011;37207;53.060;18.726;2023-05-29T14:26:38;56.20;;;4.60;;
51146;SDS011;37207;53.060;18.726;2023-05-29T14:29:04;4.40;;;1.90;;
51146;SDS011;37207;53.060;18.726;2023-05-29T14:31:30;6.30;;;2.50;;
51146;SDS011;37207;53.060;18.726;2023-05-29T14:33:56;6.20;;;2.50;;
51146;SDS011;37207;53.060;18.726;2023-05-29T14:36:22;4.90;;;2.30;;
51146;SDS011;37207;53.060;18.726;2023-05-29T14:38:48;39.30;;;4.20;;
51146;SDS011;37207;53.060;18.726;2023-05-29T14:41:15;3.70;;;2.20;;
51146;SDS011;37207;53.060;18.726;2023-05-29T14:43:41;5.60;;;2.10;;
51146;SDS011;37207;53.060;18.726;2023-05-29T14:46:08;17.40;;;2.70;;
51146;SDS011;37207;53.060;18.726;2023-05-29T14:48:34;14.70;;;2.70;;
51146;SDS011;37207;53.060;18.726;2023-05-29T14:51:00;8.00;;;2.10;;
51146;SDS011;37207;53.060;18.726;2023-05-29T14:53:26;18.90;;;2.20;;
51146;SDS011;37207;53.060;18.726;2023-05-29T14:55:54;5.70;;;2.10;;